Time;durP1;ratioP1;P1;durP2;ratioP2;P2;SDS_P1;SDS_P2;PMS_P1;PMS_P2;Temp;Humidity;BMP_temperature;BMP_pressure;BME280_temperature;BME280_humidity;BME280_pressure;Samples;Min_cycle;Max_cycle;Signal;HPM_P1;HPM_P2
2022/07/13 00:00:03;;;;;;;1.60;0.55;;;23.10;67.00;;;;;;5110882;28;20172;-76
2022/07/13 00:02:29;;;;;;;1.23;0.60;;;23.10;66.90;;;;;;5111261;28;20093;-76
2022/07/13 00:04:55;;;;;;;1.10;0.68;;;23.00;66.80;;;;;;5110973;28;20032;-76
2022/07/13 00:07:21;;;;;;;1.58;0.60;;;23.00;66.80;;;;;;5110956;28;20053;-76
2022/07/13 00:09:46;;;;;;;1.40;0.75;;;23.00;66.90;;;;;;5112192;28;20028;-76
2022/07/13 00:12:12;;;;;;;1.05;0.60;;;23.00;66.90;;;;;;5111068;28;20398;-76
2022/07/13 00:14:38;;;;;;;1.05;0.77;;;23.00;66.80;;;;;;5110328;28;20490;-76
2022/07/13 00:17:03;;;;;;;1.00;0.70;;;23.00;66.80;;;;;;5111032;28;20040;-76
2022/07/13 00:19:29;;;;;;;1.10;1.00;;;23.00;66.80;;;;;;5113229;28;20605;-76
2022/07/13 00:21:55;;;;;;;1.60;0.80;;;23.00;66.80;;;;;;5114959;28;20035;-76
2022/07/13 00:24:23;;;;;;;1.50;1.02;;;23.00;66.80;;;;;;5115131;28;20031;-76
2022/07/13 00:26:49;;;;;;;0.98;0.88;;;23.00;66.80;;;;;;5114849;28;20126;-76
2022/07/13 00:29:15;;;;;;;1.00;0.90;;;23.00;66.80;;;;;;5114983;28;20126;-76
2022/07/13 00:31:41;;;;;;;2.80;0.95;;;23.00;66.80;;;;;;5114673;28;20032;-77
2022/07/13 00:34:07;;;;;;;1.33;0.82;;;23.00;66.80;;;;;;5114785;28;20051;-76
2022/07/13 00:36:33;;;;;;;0.77;0.63;;;23.00;66.80;;;;;;5114507;28;20048;-76
2022/07/13 00:38:58;;;;;;;1.45;1.35;;;23.00;66.80;;;;;;5114811;28;20092;-76
2022/07/13 00:41:24;;;;;;;1.13;0.98;;;22.90;66.70;;;;;;5114525;28;20416;-76
2022/07/13 00:43:49;;;;;;;0.90;0.68;;;22.90;66.60;;;;;;5114762;28;20042;-76
2022/07/13 00:46:18;;;;;;;1.38;1.00;;;22.90;66.60;;;;;;5114408;28;20475;-76
2022/07/13 00:48:43;;;;;;;0.80;0.80;;;23.00;66.60;;;;;;5114377;28;20069;-76
2022/07/13 00:51:09;;;;;;;2.45;1.40;;;22.90;66.60;;;;;;5114359;28;20127;-76
2022/07/13 00:53:41;;;;;;;2.10;1.05;;;22.90;66.60;;;;;;5114422;28;20100;-75
2022/07/13 00:56:07;;;;;;;1.88;1.00;;;22.90;66.60;;;;;;5114292;28;20458;-76
2022/07/13 00:58:32;;;;;;;1.20;0.82;;;22.90;66.60;;;;;;5113955;28;20143;-76
2022/07/13 01:00:58;;;;;;;1.25;0.82;;;22.90;66.60;;;;;;5114118;28;20411;-76
2022/07/13 01:03:27;;;;;;;1.65;0.93;;;22.90;66.60;;;;;;5114299;28;20039;-76
2022/07/13 01:05:53;;;;;;;1.65;0.90;;;22.90;67.30;;;;;;5114080;28;20095;-76
2022/07/13 01:08:20;;;;;;;1.45;0.70;;;22.90;66.50;;;;;;5114558;28;20443;-75
2022/07/13 01:10:47;;;;;;;2.85;0.73;;;22.90;66.40;;;;;;5113979;28;20044;-76
2022/07/13 01:13:16;;;;;;;1.60;1.05;;;22.90;66.40;;;;;;5114256;28;20509;-75
2022/07/13 01:15:42;;;;;;;2.58;1.10;;;22.90;66.40;;;;;;5113927;28;20475;-76
2022/07/13 01:18:13;;;;;;;1.10;0.60;;;22.90;66.40;;;;;;5113968;28;20043;-76
2022/07/13 01:20:42;;;;;;;1.00;0.80;;;22.90;66.40;;;;;;5114170;28;20063;-76
2022/07/13 01:23:10;;;;;;;2.78;0.90;;;22.90;66.40;;;;;;5113788;28;20063;-76
2022/07/13 01:25:36;;;;;;;1.05;0.68;;;22.90;66.40;;;;;;5113759;28;20111;-76
2022/07/13 01:28:02;;;;;;;0.98;0.90;;;22.90;66.40;;;;;;5113588;28;20169;-75
2022/07/13 01:30:28;;;;;;;1.63;1.27;;;22.90;66.40;;;;;;5113503;28;20051;-76
2022/07/13 01:32:53;;;;;;;1.35;1.00;;;22.90;66.40;;;;;;5113753;28;20038;-76
2022/07/13 01:35:26;;;;;;;1.90;1.00;;;22.90;66.30;;;;;;5114998;28;20031;-75
2022/07/13 01:37:53;;;;;;;1.27;0.90;;;22.90;66.30;;;;;;5113441;28;20070;-76
2022/07/13 01:40:19;;;;;;;2.17;0.70;;;22.90;66.20;;;;;;5113817;28;20043;-75
2022/07/13 01:42:47;;;;;;;1.38;1.27;;;22.80;66.10;;;;;;5113309;28;20040;-76
2022/07/13 01:45:15;;;;;;;1.02;0.85;;;22.90;66.10;;;;;;5114696;28;20376;-76
2022/07/13 01:47:42;;;;;;;1.35;0.80;;;22.80;66.10;;;;;;5113247;28;20482;-77
2022/07/13 01:50:10;;;;;;;2.28;1.20;;;22.80;66.00;;;;;;5113784;28;20440;-76
2022/07/13 01:52:36;;;;;;;1.40;1.08;;;22.80;66.00;;;;;;5113451;28;20126;-75
2022/07/13 01:55:04;;;;;;;1.30;1.02;;;22.80;65.90;;;;;;5113227;28;20042;-76
2022/07/13 01:57:29;;;;;;;1.55;1.13;;;22.80;65.90;;;;;;5112743;28;20048;-76
2022/07/13 02:00:00;;;;;;;1.23;0.93;;;22.80;65.90;;;;;;5113021;28;20043;-75
2022/07/13 02:02:25;;;;;;;1.17;0.93;;;22.80;65.80;;;;;;5113036;28;20043;-75
2022/07/13 02:04:52;;;;;;;1.77;1.20;;;22.80;65.80;;;;;;5113337;28;20039;-76
2022/07/13 02:07:17;;;;;;;1.20;1.05;;;22.80;65.80;;;;;;5112972;28;20036;-76
2022/07/13 02:09:43;;;;;;;1.27;0.90;;;22.80;65.80;;;;;;5112778;28;20158;-75
2022/07/13 02:12:08;;;;;;;1.35;1.00;;;22.80;65.80;;;;;;5113016;28;20044;-76
2022/07/13 02:14:34;;;;;;;1.20;0.95;;;22.80;65.70;;;;;;5113053;28;20115;-76
2022/07/13 02:17:00;;;;;;;2.10;1.30;;;22.80;65.80;;;;;;5114006;28;20069;-76
2022/07/13 02:19:25;;;;;;;2.85;1.30;;;22.80;66.40;;;;;;5112688;28;20035;-75
2022/07/13 02:21:51;;;;;;;2.17;1.10;;;22.80;65.60;;;;;;5112999;28;20040;-77
2022/07/13 02:24:16;;;;;;;1.60;1.10;;;22.80;65.60;;;;;;5112537;28;20429;-75
2022/07/13 02:26:42;;;;;;;1.83;1.35;;;22.80;65.50;;;;;;5112792;28;20047;-75
2022/07/13 02:29:08;;;;;;;1.15;1.00;;;22.80;65.50;;;;;;5112515;28;20440;-76
2022/07/13 02:31:34;;;;;;;1.27;1.17;;;22.80;65.50;;;;;;5113725;28;20047;-76
2022/07/13 02:34:00;;;;;;;1.33;1.08;;;22.80;65.40;;;;;;5112404;28;20088;-76
2022/07/13 02:36:26;;;;;;;1.20;1.10;;;22.80;65.40;;;;;;5112402;28;20478;-76
2022/07/13 02:38:52;;;;;;;1.73;1.23;;;22.80;65.40;;;;;;5112200;28;20038;-76
2022/07/13 02:41:17;;;;;;;1.73;1.00;;;22.80;65.40;;;;;;5111762;28;20043;-75
2022/07/13 02:43:43;;;;;;;1.50;1.10;;;22.80;65.40;;;;;;5112128;28;20050;-76
2022/07/13 02:46:11;;;;;;;2.63;1.58;;;22.80;65.30;;;;;;5112223;28;20039;-76
2022/07/13 02:48:37;;;;;;;1.98;1.10;;;22.70;65.20;;;;;;5112367;28;20039;-76
2022/07/13 02:51:03;;;;;;;1.92;1.42;;;22.80;65.30;;;;;;5112056;28;20463;-76
2022/07/13 02:53:28;;;;;;;1.23;1.13;;;22.80;65.30;;;;;;5112359;28;20044;-76
2022/07/13 02:55:54;;;;;;;1.55;1.45;;;22.80;65.30;;;;;;5111927;28;20487;-76
2022/07/13 02:58:19;;;;;;;1.63;1.10;;;22.80;65.20;;;;;;5112866;28;20048;-76
2022/07/13 03:00:48;;;;;;;1.38;1.27;;;22.80;65.20;;;;;;5111706;28;20036;-76
2022/07/13 03:03:14;;;;;;;1.55;1.20;;;22.80;65.20;;;;;;5112104;28;20039;-76
2022/07/13 03:05:40;;;;;;;2.25;1.02;;;22.80;65.40;;;;;;5111982;28;20035;-76
2022/07/13 03:08:05;;;;;;;1.98;1.42;;;22.80;65.20;;;;;;5111993;28;20389;-76
2022/07/13 03:10:31;;;;;;;1.80;1.48;;;22.80;65.20;;;;;;5111961;28;20047;-75
2022/07/13 03:13:00;;;;;;;1.48;1.30;;;22.80;65.20;;;;;;5111887;28;20046;-75
2022/07/13 03:15:25;;;;;;;1.88;1.55;;;22.80;65.10;;;;;;5111813;28;20047;-75
2022/07/13 03:17:51;;;;;;;2.50;1.05;;;22.80;65.10;;;;;;5111655;28;20051;-76
2022/07/13 03:20:17;;;;;;;1.08;0.98;;;22.80;65.10;;;;;;5111783;28;20031;-75
2022/07/13 03:22:42;;;;;;;1.73;1.25;;;22.80;65.10;;;;;;5111804;28;20425;-76
2022/07/13 03:25:09;;;;;;;1.90;1.40;;;22.80;65.10;;;;;;5111671;28;20372;-76
2022/07/13 03:27:34;;;;;;;1.60;1.50;;;22.80;65.10;;;;;;5111405;28;20101;-75
2022/07/13 03:30:03;;;;;;;1.45;1.35;;;22.80;65.10;;;;;;5111740;28;20036;-76
2022/07/13 03:32:29;;;;;;;2.00;1.48;;;22.80;65.10;;;;;;5111612;28;20096;-76
2022/07/13 03:34:58;;;;;;;2.03;1.27;;;22.80;65.10;;;;;;5111619;28;20036;-75
2022/07/13 03:37:23;;;;;;;1.50;1.40;;;22.80;65.10;;;;;;5112390;28;20043;-75
2022/07/13 03:39:51;;;;;;;2.05;1.23;;;22.80;65.10;;;;;;5111564;28;20078;-76
2022/07/13 03:42:17;;;;;;;1.65;1.55;;;22.70;65.10;;;;;;5111128;28;20510;-75
2022/07/13 03:44:43;;;;;;;1.95;1.05;;;22.70;65.10;;;;;;5111452;28;20188;-75
2022/07/13 03:47:11;;;;;;;1.95;1.30;;;22.70;65.10;;;;;;5111169;28;20445;-76
2022/07/13 03:49:37;;;;;;;1.98;1.48;;;22.70;65.10;;;;;;5111147;28;20043;-76
2022/07/13 03:52:03;;;;;;;1.73;1.50;;;22.70;65.10;;;;;;5112362;28;20110;-75
2022/07/13 03:54:28;;;;;;;1.70;1.60;;;22.70;65.10;;;;;;5111096;28;20539;-75
2022/07/13 03:56:54;;;;;;;1.52;1.42;;;22.70;65.10;;;;;;5110808;28;20040;-75
2022/07/13 03:59:20;;;;;;;4.32;1.50;;;22.70;65.10;;;;;;5110981;28;20403;-75
2022/07/13 04:01:45;;;;;;;2.20;1.70;;;22.70;65.10;;;;;;5110913;28;20115;-76
2022/07/13 04:04:11;;;;;;;1.85;1.40;;;22.70;65.10;;;;;;5111762;28;20079;-75
2022/07/13 04:06:37;;;;;;;1.88;1.70;;;22.70;65.10;;;;;;5111482;28;20535;-75
2022/07/13 04:09:06;;;;;;;1.90;1.10;;;22.70;65.20;;;;;;5111022;28;20042;-76
2022/07/13 04:11:31;;;;;;;1.67;1.45;;;22.70;65.20;;;;;;5111087;28;20047;-76
2022/07/13 04:13:57;;;;;;;1.65;1.38;;;22.70;65.20;;;;;;5111155;28;20546;-76
2022/07/13 04:16:22;;;;;;;1.27;1.17;;;22.70;65.20;;;;;;5110834;28;20376;-75
2022/07/13 04:18:48;;;;;;;1.58;1.38;;;22.70;65.20;;;;;;5110665;28;20032;-75
2022/07/13 04:21:16;;;;;;;1.35;1.13;;;22.70;65.10;;;;;;5110442;28;20055;-75
2022/07/13 04:23:42;;;;;;;1.20;1.10;;;22.70;65.10;;;;;;5110624;28;20055;-75
2022/07/13 04:26:08;;;;;;;1.33;1.23;;;22.70;65.10;;;;;;5111092;28;20040;-75
2022/07/13 04:28:33;;;;;;;1.30;1.00;;;22.70;65.10;;;;;;5110648;28;20398;-75
2022/07/13 04:31:00;;;;;;;1.60;1.50;;;22.70;65.00;;;;;;5112008;28;20089;-75
2022/07/13 04:33:25;;;;;;;1.95;1.00;;;22.70;65.00;;;;;;5111986;28;20079;-76
2022/07/13 04:35:51;;;;;;;1.20;1.10;;;22.70;65.00;;;;;;5111095;28;20467;-76
2022/07/13 04:38:17;;;;;;;1.58;1.27;;;22.70;65.00;;;;;;5111162;28;20042;-76
2022/07/13 04:40:42;;;;;;;1.52;1.42;;;22.70;64.90;;;;;;5111389;28;20044;-75
2022/07/13 04:43:08;;;;;;;1.10;1.00;;;22.70;64.90;;;;;;5110840;28;20036;-76
2022/07/13 04:45:34;;;;;;;1.15;1.05;;;22.70;64.90;;;;;;5110663;28;20493;-75
2022/07/13 04:48:00;;;;;;;1.63;1.52;;;22.70;64.80;;;;;;5110801;28;20040;-76
2022/07/13 04:50:26;;;;;;;1.20;1.10;;;22.70;64.80;;;;;;5110872;28;20122;-75
2022/07/13 04:52:51;;;;;;;1.83;1.13;;;22.70;64.80;;;;;;5111925;28;20078;-76
2022/07/13 04:55:17;;;;;;;1.55;1.45;;;22.70;64.80;;;;;;5111856;28;20479;-75
2022/07/13 04:57:44;;;;;;;1.48;1.38;;;22.70;64.70;;;;;;5111559;28;20048;-76
2022/07/13 05:00:11;;;;;;;1.20;1.05;;;22.70;64.70;;;;;;5110244;28;20051;-75
2022/07/13 05:02:37;;;;;;;1.48;1.27;;;22.70;64.60;;;;;;5110496;28;20048;-76
2022/07/13 05:05:04;;;;;;;1.65;1.25;;;22.70;64.70;;;;;;5111941;28;20043;-76
2022/07/13 05:07:29;;;;;;;1.58;1.35;;;22.70;64.60;;;;;;5114272;28;20062;-76
2022/07/13 05:09:56;;;;;;;1.50;1.40;;;22.70;64.50;;;;;;5115260;28;20035;-75
2022/07/13 05:12:22;;;;;;;1.17;1.05;;;22.70;64.50;;;;;;5114028;28;20067;-75
2022/07/13 05:14:48;;;;;;;1.85;1.50;;;22.70;64.50;;;;;;5114112;28;20124;-76
2022/07/13 05:17:14;;;;;;;1.38;1.27;;;22.70;64.40;;;;;;5113902;28;20119;-76
2022/07/13 05:19:45;;;;;;;2.75;1.30;;;22.70;64.40;;;;;;5115250;28;20035;-75
2022/07/13 05:22:11;;;;;;;2.30;1.30;;;22.70;64.40;;;;;;5113934;28;20047;-76
2022/07/13 05:24:36;;;;;;;1.70;1.08;;;22.70;64.20;;;;;;5115082;28;20035;-76
2022/07/13 05:27:02;;;;;;;1.73;1.23;;;22.70;64.30;;;;;;5114255;28;20047;-71
2022/07/13 05:29:28;;;;;;;1.08;0.93;;;22.80;65.00;;;;;;5113618;28;20163;-72
2022/07/13 05:31:59;;;;;;;1.10;0.80;;;22.80;64.10;;;;;;5113444;28;20036;-72
2022/07/13 05:34:25;;;;;;;0.90;0.80;;;22.80;63.90;;;;;;5113688;28;20040;-70
2022/07/13 05:36:55;;;;;;;1.27;0.70;;;22.80;63.80;;;;;;5113441;28;20072;-72
2022/07/13 05:39:20;;;;;;;0.70;0.50;;;22.80;63.70;;;;;;5113853;28;20035;-70
2022/07/13 05:41:46;;;;;;;0.90;0.70;;;22.80;63.60;;;;;;5113737;28;20285;-71
2022/07/13 05:44:12;;;;;;;1.35;0.70;;;22.80;63.50;;;;;;5113505;28;20661;-72
2022/07/13 05:46:37;;;;;;;1.60;0.60;;;22.90;63.40;;;;;;5113272;28;20031;-72
2022/07/13 05:49:03;;;;;;;1.88;0.40;;;22.90;63.30;;;;;;5112789;28;20122;-72
2022/07/13 05:51:28;;;;;;;1.90;0.70;;;22.90;63.20;;;;;;5111315;28;20483;-72
2022/07/13 05:53:54;;;;;;;0.80;0.55;;;23.00;63.20;;;;;;5110309;28;20090;-70
2022/07/13 05:56:20;;;;;;;0.98;0.60;;;23.00;63.00;;;;;;5117479;28;20040;-71
2022/07/13 05:58:46;;;;;;;0.90;0.60;;;23.00;62.90;;;;;;5112091;28;20051;-70
2022/07/13 06:01:11;;;;;;;0.80;0.50;;;23.00;62.70;;;;;;5108828;28;20042;-71
2022/07/13 06:03:37;;;;;;;1.98;0.73;;;23.00;62.70;;;;;;5109378;28;20059;-71
2022/07/13 06:06:03;;;;;;;3.53;0.82;;;23.10;62.60;;;;;;5109896;28;20032;-71
2022/07/13 06:08:28;;;;;;;2.25;0.90;;;23.10;62.50;;;;;;5106871;28;20074;-77
2022/07/13 06:10:54;;;;;;;1.38;0.65;;;23.10;62.40;;;;;;5101285;28;20044;-71
2022/07/13 06:13:20;;;;;;;2.67;0.82;;;23.10;62.40;;;;;;5110538;27;20100;-71
2022/07/13 06:15:45;;;;;;;2.40;0.85;;;23.10;62.40;;;;;;5109191;27;20116;-71
2022/07/13 06:18:11;;;;;;;3.00;0.93;;;23.10;62.40;;;;;;5087789;27;20090;-71
2022/07/13 06:20:36;;;;;;;2.08;0.60;;;23.10;62.30;;;;;;5091299;28;20042;-72
2022/07/13 06:23:14;;;;;;;2.20;0.70;;;23.20;62.30;;;;;;5091809;28;20036;-71
2022/07/13 06:25:40;;;;;;;2.75;0.82;;;23.20;62.20;;;;;;5092980;27;20039;-71
2022/07/13 06:28:07;;;;;;;1.08;0.73;;;23.20;62.20;;;;;;5086990;28;20040;-71
2022/07/13 06:30:33;;;;;;;1.23;0.82;;;23.20;62.10;;;;;;5096119;27;20043;-71
2022/07/13 06:32:59;;;;;;;1.73;0.50;;;23.20;62.00;;;;;;5097191;27;20040;-71
2022/07/13 06:35:25;;;;;;;2.20;1.00;;;23.20;62.00;;;;;;5092934;28;20625;-71
2022/07/13 06:37:51;;;;;;;1.73;1.02;;;23.30;62.10;;;;;;5094372;27;20436;-72
2022/07/13 06:40:17;;;;;;;1.65;1.10;;;23.30;62.20;;;;;;5090114;27;20047;-71
2022/07/13 06:42:45;;;;;;;1.85;1.10;;;23.30;62.20;;;;;;5092424;27;20540;-71
2022/07/13 06:45:11;;;;;;;2.60;1.00;;;23.30;62.40;;;;;;5099522;28;20040;-71
2022/07/13 06:47:39;;;;;;;1.20;0.90;;;23.40;62.50;;;;;;5109445;27;20062;-71
2022/07/13 06:50:06;;;;;;;1.05;0.95;;;23.40;62.60;;;;;;5093028;28;20062;-71
2022/07/13 06:52:32;;;;;;;3.03;0.93;;;23.40;62.70;;;;;;5094875;28;20044;-71
2022/07/13 06:54:57;;;;;;;1.90;0.90;;;23.40;62.30;;;;;;5096881;27;20430;-79
2022/07/13 06:57:23;;;;;;;3.38;1.02;;;23.40;62.20;;;;;;5091465;28;20033;-71
2022/07/13 06:59:49;;;;;;;1.80;0.80;;;23.40;62.10;;;;;;5101357;27;20051;-71
2022/07/13 07:02:14;;;;;;;5.65;0.95;;;23.50;62.10;;;;;;5095212;28;20067;-71
2022/07/13 07:04:40;;;;;;;6.10;0.57;;;23.50;62.00;;;;;;5094967;28;20047;-71
2022/07/13 07:07:06;;;;;;;1.55;0.77;;;23.50;61.90;;;;;;5094293;27;20638;-71
2022/07/13 07:09:32;;;;;;;2.25;0.65;;;23.50;61.90;;;;;;5098491;28;20093;-73
2022/07/13 07:11:58;;;;;;;1.63;0.70;;;23.60;61.80;;;;;;5089577;27;20146;-71
2022/07/13 07:14:24;;;;;;;3.33;0.70;;;23.60;62.00;;;;;;5092006;28;20123;-72
2022/07/13 07:16:49;;;;;;;1.80;0.60;;;23.60;62.30;;;;;;5093685;27;20496;-72
2022/07/13 07:19:18;;;;;;;1.63;0.90;;;23.60;62.10;;;;;;5110460;27;20087;-72
2022/07/13 07:21:43;;;;;;;2.17;0.85;;;23.60;62.00;;;;;;5107378;27;20036;-72
2022/07/13 07:24:09;;;;;;;3.55;0.98;;;23.70;61.90;;;;;;5089697;27;20032;-72
2022/07/13 07:26:35;;;;;;;4.50;1.30;;;23.70;61.90;;;;;;5106932;27;20394;-70
2022/07/13 07:29:00;;;;;;;3.90;0.90;;;23.70;61.90;;;;;;5093178;28;20043;-75
2022/07/13 07:31:26;;;;;;;2.95;1.00;;;23.70;61.90;;;;;;5095412;28;20537;-71
2022/07/13 07:33:52;;;;;;;1.48;0.70;;;23.70;61.90;;;;;;5101137;27;20052;-70
2022/07/13 07:36:18;;;;;;;2.22;0.80;;;23.70;62.00;;;;;;5090900;28;20471;-70
2022/07/13 07:38:44;;;;;;;5.45;1.00;;;23.70;62.00;;;;;;5091863;28;20126;-69
2022/07/13 07:41:10;;;;;;;2.40;1.02;;;23.70;62.00;;;;;;5090923;27;20435;-70
2022/07/13 07:43:37;;;;;;;2.10;1.30;;;23.70;62.10;;;;;;5092663;28;20047;-70
2022/07/13 07:46:02;;;;;;;5.00;1.73;;;23.70;62.00;;;;;;5090857;28;20043;-70
2022/07/13 07:48:28;;;;;;;4.30;1.67;;;23.70;62.00;;;;;;5091530;28;20044;-72
2022/07/13 07:50:54;;;;;;;7.78;1.63;;;23.70;62.00;;;;;;5093450;28;20664;-71
2022/07/13 07:53:20;;;;;;;2.55;1.85;;;23.70;62.10;;;;;;5092313;28;20040;-71
2022/07/13 07:55:46;;;;;;;2.92;1.70;;;23.80;62.20;;;;;;5090610;28;20047;-70
2022/07/13 07:58:13;;;;;;;5.55;1.98;;;23.80;62.40;;;;;;5094593;28;20055;-71
2022/07/13 08:00:40;;;;;;;3.38;2.05;;;23.80;62.40;;;;;;5095178;28;20031;-81
2022/07/13 08:03:06;;;;;;;5.55;2.03;;;23.80;62.50;;;;;;5095207;28;20467;-78
2022/07/13 08:05:32;;;;;;;5.20;1.85;;;23.80;62.70;;;;;;5090128;28;20066;-72
2022/07/13 08:07:58;;;;;;;4.55;1.60;;;23.80;62.80;;;;;;5092285;28;20048;-69
2022/07/13 08:10:24;;;;;;;4.32;1.88;;;23.90;63.10;;;;;;5093842;28;20417;-70
2022/07/13 08:12:49;;;;;;;3.42;1.60;;;23.90;63.00;;;;;;5099859;28;20053;-70
2022/07/13 08:15:15;;;;;;;3.05;1.80;;;23.90;63.80;;;;;;5095220;28;20514;-70
2022/07/13 08:17:40;;;;;;;5.85;2.00;;;23.90;63.00;;;;;;5094542;28;20049;-69
2022/07/13 08:20:07;;;;;;;4.60;1.92;;;23.90;62.90;;;;;;5110985;28;20040;-70
2022/07/13 08:22:33;;;;;;;5.00;2.10;;;23.90;63.00;;;;;;5095138;28;20082;-74
2022/07/13 08:24:58;;;;;;;3.03;2.10;;;23.90;63.20;;;;;;5093730;28;20040;-75
2022/07/13 08:27:25;;;;;;;2.45;1.80;;;23.90;63.20;;;;;;5095500;28;20047;-74
2022/07/13 08:29:51;;;;;;;4.72;1.52;;;23.90;63.10;;;;;;5110983;28;20052;-75
2022/07/13 08:32:17;;;;;;;4.53;2.28;;;24.00;63.10;;;;;;5094294;28;20096;-75
2022/07/13 08:40:14;;;;;;;4.20;1.92;;;24.00;63.10;;;;;;5095249;28;20036;-76
2022/07/13 08:42:39;;;;;;;7.03;2.95;;;24.00;63.20;;;;;;5098063;28;20567;-75
2022/07/13 08:45:06;;;;;;;4.28;2.30;;;24.10;63.30;;;;;;5095574;28;20066;-75
2022/07/13 08:47:34;;;;;;;3.85;2.78;;;24.10;63.30;;;;;;5095984;27;20506;-76
2022/07/13 08:50:07;;;;;;;3.90;2.60;;;24.10;63.30;;;;;;5096735;28;20043;-75
2022/07/13 08:52:36;;;;;;;3.97;2.13;;;24.20;63.40;;;;;;5113696;27;20051;-74
2022/07/13 08:55:05;;;;;;;4.80;2.00;;;24.20;63.50;;;;;;5100699;27;20100;-74
2022/07/13 08:57:34;;;;;;;6.72;2.13;;;24.20;63.40;;;;;;5096433;27;20052;-75
2022/07/13 09:00:02;;;;;;;3.83;2.22;;;24.30;63.50;;;;;;5110198;27;20051;-75
2022/07/13 09:02:28;;;;;;;5.65;2.92;;;24.30;63.40;;;;;;5093315;27;20055;-75
2022/07/13 09:04:53;;;;;;;3.72;2.33;;;24.30;63.40;;;;;;5108180;27;20039;-75
2022/07/13 09:07:19;;;;;;;3.75;2.60;;;24.40;63.20;;;;;;5078926;28;20040;-81
2022/07/13 09:09:45;;;;;;;5.90;2.10;;;24.50;63.10;;;;;;5072017;28;20109;-76
2022/07/13 09:14:54;;;;;;;9.07;2.85;;;24.80;62.70;;;;;;5087935;27;21413;-74
2022/07/13 09:20:20;;;;;;;8.20;3.05;;;24.90;63.20;;;;;;5085654;27;20418;-80
2022/07/13 09:25:33;;;;;;;3.90;2.42;;;25.10;63.30;;;;;;5104290;27;1163778;-83
2022/07/13 09:28:16;;;;;;;5.75;2.78;;;25.30;63.40;;;;;;5122998;27;20056;-80
2022/07/13 09:30:43;;;;;;;5.30;2.63;;;25.30;63.40;;;;;;5123461;27;20038;-76
2022/07/13 09:33:09;;;;;;;6.10;3.92;;;25.40;63.20;;;;;;5122016;27;20054;-78
2022/07/13 09:41:24;;;;;;;7.13;3.35;;;25.50;63.20;;;;;;5120792;27;1219638;-77
2022/07/13 09:46:30;;;;;;;7.97;3.80;;;25.60;62.60;;;;;;5103657;27;20381;-77
2022/07/13 09:48:56;;;;;;;6.55;2.55;;;25.60;62.20;;;;;;5103037;28;20080;-76
2022/07/13 09:51:26;;;;;;;6.28;3.05;;;25.60;61.90;;;;;;5106427;28;20046;-76
2022/07/13 09:53:57;;;;;;;5.90;3.13;;;25.60;61.90;;;;;;5135851;27;20048;-76
2022/07/13 09:56:28;;;;;;;3.17;2.50;;;25.60;61.80;;;;;;5124116;27;20050;-77
2022/07/13 09:58:54;;;;;;;5.25;2.25;;;25.60;61.70;;;;;;5137638;27;20491;-76
2022/07/13 10:01:20;;;;;;;3.35;1.90;;;25.60;61.60;;;;;;5096921;28;20046;-76
2022/07/13 10:03:47;;;;;;;5.15;2.33;;;25.60;61.60;;;;;;5134846;27;20036;-76
2022/07/13 10:06:16;;;;;;;3.58;1.83;;;25.60;61.60;;;;;;5106677;28;20443;-76
2022/07/13 10:08:43;;;;;;;2.60;2.07;;;25.60;61.60;;;;;;5101506;27;20039;-76
2022/07/13 10:11:09;;;;;;;4.53;2.40;;;25.60;61.50;;;;;;5093868;28;20039;-76
2022/07/13 10:13:34;;;;;;;2.95;2.33;;;25.60;61.60;;;;;;5103095;28;20086;-76
2022/07/13 10:16:00;;;;;;;5.05;2.13;;;25.50;61.50;;;;;;5104039;28;20063;-73
2022/07/13 10:18:31;;;;;;;5.75;2.17;;;25.60;61.60;;;;;;5103222;28;20062;-74
2022/07/13 10:23:42;;;;;;;2.97;1.45;;;25.60;61.50;;;;;;5064280;28;21160;-75
2022/07/13 10:26:25;;;;;;;4.93;2.08;;;25.60;61.70;;;;;;5042979;28;20053;-72
2022/07/13 10:29:09;;;;;;;4.50;2.50;;;25.50;61.90;;;;;;5034922;28;20067;-70
2022/07/13 10:31:36;;;;;;;3.97;1.90;;;25.50;62.30;;;;;;5036836;28;20052;-72
2022/07/13 10:34:04;;;;;;;5.72;2.17;;;25.50;62.40;;;;;;5042253;28;20528;-72
2022/07/13 10:39:32;;;;;;;4.65;2.10;;;25.60;62.30;;;;;;5135994;27;20383;-73
2022/07/13 10:44:42;;;;;;;5.88;2.05;;;25.60;62.10;;;;;;5085703;27;20417;-72
2022/07/13 10:47:11;;;;;;;4.68;1.75;;;25.60;62.00;;;;;;5070814;28;20107;-74
2022/07/13 10:49:45;;;;;;;5.38;2.00;;;25.70;62.70;;;;;;5069348;28;20132;-74
2022/07/13 10:57:46;;;;;;;6.90;1.90;;;25.70;62.40;;;;;;5130711;27;1173570;-74
2022/07/13 11:00:29;;;;;;;5.03;2.38;;;25.70;62.10;;;;;;5147588;27;20043;-78
2022/07/13 11:03:01;;;;;;;3.50;1.45;;;25.60;62.10;;;;;;5151168;27;20473;-78
2022/07/13 11:05:30;;;;;;;3.53;1.67;;;25.70;61.80;;;;;;5132484;27;20056;-74
2022/07/13 11:07:58;;;;;;;1.70;1.27;;;25.70;61.30;;;;;;5119389;27;20545;-74
2022/07/13 11:10:30;;;;;;;3.65;1.40;;;25.70;61.00;;;;;;5144458;27;20045;-71
2022/07/13 11:31:57;;;;;;;4.47;1.20;;;25.60;60.10;;;;;;5127598;27;20375;-72
2022/07/13 11:34:29;;;;;;;2.60;0.70;;;25.60;58.10;;;;;;5127538;28;20047;-70
2022/07/13 11:36:57;;;;;;;1.25;0.70;;;25.60;57.80;;;;;;5125605;28;20036;-73
2022/07/13 11:42:23;;;;;;;3.58;0.70;;;25.60;58.20;;;;;;5108337;27;20423;-72
2022/07/13 11:44:51;;;;;;;1.33;0.77;;;25.60;57.80;;;;;;5106535;28;20032;-73
2022/07/13 11:47:19;;;;;;;1.63;0.93;;;25.50;57.70;;;;;;5104347;28;20050;-75
2022/07/13 11:49:49;;;;;;;2.08;0.80;;;25.50;57.50;;;;;;5104339;28;20040;-74
2022/07/13 11:52:24;;;;;;;2.45;0.68;;;25.50;57.30;;;;;;5106655;28;20372;-74
2022/07/13 11:55:06;;;;;;;2.03;0.77;;;25.50;57.20;;;;;;5100367;28;20036;-75
2022/07/13 11:57:32;;;;;;;3.08;0.85;;;25.50;56.90;;;;;;5105102;28;20040;-74
2022/07/13 12:00:04;;;;;;;2.38;1.08;;;25.50;57.00;;;;;;5104350;28;20055;-76
2022/07/13 12:02:30;;;;;;;1.58;0.60;;;25.50;56.70;;;;;;5104390;28;20042;-77
2022/07/13 12:04:56;;;;;;;2.20;0.70;;;25.50;56.90;;;;;;5105461;28;20118;-76
2022/07/13 12:07:24;;;;;;;4.72;0.85;;;25.50;56.80;;;;;;5106479;28;20455;-76
2022/07/13 12:12:34;;;;;;;4.70;0.65;;;25.50;56.70;;;;;;5069323;27;20440;-79
2022/07/13 12:15:00;;;;;;;2.92;0.60;;;25.50;56.30;;;;;;5060771;28;20033;-80
2022/07/13 12:17:28;;;;;;;2.55;0.57;;;25.50;56.30;;;;;;5067199;28;20546;-74
2022/07/13 12:20:10;;;;;;;3.90;0.70;;;25.50;56.20;;;;;;5067466;28;20078;-78
2022/07/13 12:22:36;;;;;;;3.85;0.95;;;25.50;56.40;;;;;;5092646;28;20123;-80
2022/07/13 12:25:03;;;;;;;2.20;0.70;;;25.60;56.40;;;;;;5083121;28;20051;-80
2022/07/13 12:27:29;;;;;;;1.13;0.50;;;25.60;56.30;;;;;;5073730;28;20044;-79
2022/07/13 12:30:11;;;;;;;1.98;0.60;;;25.60;56.50;;;;;;5079811;28;20127;-79
2022/07/13 12:35:40;;;;;;;3.83;0.77;;;25.70;56.50;;;;;;5128279;27;20391;-72
2022/07/13 12:38:10;;;;;;;1.27;0.60;;;25.70;56.40;;;;;;5115297;28;20495;-78
2022/07/13 12:40:52;;;;;;;3.03;0.70;;;25.70;56.50;;;;;;5116605;28;20057;-78
2022/07/13 12:43:27;;;;;;;2.13;0.60;;;25.70;56.00;;;;;;5110888;28;20042;-78
2022/07/13 12:46:00;;;;;;;3.88;0.88;;;25.70;55.70;;;;;;5107774;28;20044;-77
2022/07/13 12:48:30;;;;;;;3.33;0.55;;;25.70;55.80;;;;;;5109469;28;20520;-72
2022/07/13 12:53:53;;;;;;;3.33;0.30;;;25.70;56.00;;;;;;5088296;27;20409;-74
2022/07/13 12:56:23;;;;;;;2.95;0.65;;;25.80;56.00;;;;;;5080976;28;20547;-73
2022/07/13 12:58:51;;;;;;;4.47;0.75;;;25.70;56.10;;;;;;5083716;28;20145;-70
2022/07/13 13:01:37;;;;;;;2.78;0.70;;;25.80;56.40;;;;;;5086514;28;20086;-71
2022/07/13 13:04:05;;;;;;;7.82;1.20;;;25.80;56.30;;;;;;5084826;28;20028;-77
2022/07/13 13:06:32;;;;;;;6.60;0.70;;;25.80;56.30;;;;;;5087285;28;20036;-78
2022/07/13 13:09:07;;;;;;;3.72;0.47;;;25.80;56.30;;;;;;5085556;28;20036;-77
2022/07/13 13:11:33;;;;;;;2.60;0.50;;;25.80;56.10;;;;;;5086436;28;20036;-72
2022/07/13 13:13:59;;;;;;;1.60;0.43;;;25.80;56.30;;;;;;5086076;28;20028;-78
2022/07/13 13:16:25;;;;;;;1.88;0.60;;;25.80;56.30;;;;;;5085069;28;20046;-71
2022/07/13 13:18:50;;;;;;;1.60;0.65;;;25.80;56.40;;;;;;5087376;28;20043;-79
2022/07/13 13:21:16;;;;;;;4.90;0.73;;;25.80;56.50;;;;;;5087265;28;20040;-79
2022/07/13 13:23:42;;;;;;;2.58;0.65;;;25.80;56.40;;;;;;5084808;28;20032;-80
2022/07/13 13:26:08;;;;;;;1.13;0.50;;;25.80;56.50;;;;;;5087261;28;20681;-79
2022/07/13 13:30:43;;;;;;;1.15;0.77;;;25.70;56.50;;;;;;5086302;28;20051;-80
2022/07/13 13:31:19;;;;;;;2.35;0.47;;;25.60;56.60;;;;;;5086324;28;20048;-79
2022/07/13 13:33:45;;;;;;;0.73;0.40;;;25.60;56.80;;;;;;5086681;28;20050;-79
2022/07/13 13:36:11;;;;;;;1.10;0.60;;;25.50;56.90;;;;;;5086329;28;20040;-79
2022/07/13 13:38:37;;;;;;;1.48;0.57;;;25.50;57.80;;;;;;5085241;28;20700;-79
2022/07/13 13:41:04;;;;;;;1.23;0.40;;;25.40;57.10;;;;;;5067901;28;20043;-79
2022/07/13 13:43:31;;;;;;;1.20;0.57;;;25.40;57.30;;;;;;5067160;28;20090;-79
2022/07/13 13:45:57;;;;;;;0.90;0.50;;;25.40;57.40;;;;;;5068164;28;20431;-79
2022/07/13 13:48:26;;;;;;;1.65;0.50;;;25.30;57.50;;;;;;5066644;28;20040;-79
2022/07/13 13:50:51;;;;;;;1.10;0.50;;;25.20;57.50;;;;;;5065912;28;20040;-80